sensor_id;sensor_type;location;lat;lon;timestamp;temperature;humidity
27016;DHT22;14557;0.000;0.000;2023-06-04T00:00:16;23.70;55.90
27016;DHT22;14557;0.000;0.000;2023-06-04T00:02:42;23.70;55.80
27016;DHT22;14557;0.000;0.000;2023-06-04T00:05:08;23.70;55.70
27016;DHT22;14557;0.000;0.000;2023-06-04T00:07:33;23.70;55.80
27016;DHT22;14557;0.000;0.000;2023-06-04T00:09:59;23.60;55.70
27016;DHT22;14557;0.000;0.000;2023-06-04T00:12:24;23.60;55.70
27016;DHT22;14557;0.000;0.000;2023-06-04T00:14:50;23.60;55.70
27016;DHT22;14557;0.000;0.000;2023-06-04T00:17:16;23.60;55.60
27016;DHT22;14557;0.000;0.000;2023-06-04T00:19:41;23.60;55.60
27016;DHT22;14557;0.000;0.000;2023-06-04T00:22:07;23.60;55.70
27016;DHT22;14557;0.000;0.000;2023-06-04T00:24:34;23.60;55.60
27016;DHT22;14557;0.000;0.000;2023-06-04T00:26:59;23.60;55.50
27016;DHT22;14557;0.000;0.000;2023-06-04T00:29:25;23.60;55.60
27016;DHT22;14557;0.000;0.000;2023-06-04T00:31:50;23.60;55.50
27016;DHT22;14557;0.000;0.000;2023-06-04T00:34:16;23.50;55.50
27016;DHT22;14557;0.000;0.000;2023-06-04T00:36:42;23.50;55.50
27016;DHT22;14557;0.000;0.000;2023-06-04T00:39:08;23.50;55.30
27016;DHT22;14557;0.000;0.000;2023-06-04T00:41:34;23.50;55.20
27016;DHT22;14557;0.000;0.000;2023-06-04T00:44:00;23.50;55.20
27016;DHT22;14557;0.000;0.000;2023-06-04T00:46:27;23.50;55.20
27016;DHT22;14557;0.000;0.000;2023-06-04T00:48:53;23.50;55.30
27016;DHT22;14557;0.000;0.000;2023-06-04T00:51:20;23.50;55.20
27016;DHT22;14557;0.000;0.000;2023-06-04T00:53:46;23.50;55.10
27016;DHT22;14557;0.000;0.000;2023-06-04T00:56:12;23.50;55.20
27016;DHT22;14557;0.000;0.000;2023-06-04T00:58:38;23.40;55.10
27016;DHT22;14557;0.000;0.000;2023-06-04T01:01:04;23.40;55.10
27016;DHT22;14557;0.000;0.000;2023-06-04T01:03:32;23.40;55.10
27016;DHT22;14557;0.000;0.000;2023-06-04T01:06:04;23.40;55.10
27016;DHT22;14557;0.000;0.000;2023-06-04T01:08:34;23.40;54.90
27016;DHT22;14557;0.000;0.000;2023-06-04T01:11:00;23.40;55.00
27016;DHT22;14557;0.000;0.000;2023-06-04T01:13:25;23.40;54.90
27016;DHT22;14557;0.000;0.000;2023-06-04T01:15:51;23.40;54.80
27016;DHT22;14557;0.000;0.000;2023-06-04T01:18:18;23.40;54.80
27016;DHT22;14557;0.000;0.000;2023-06-04T01:21:02;23.40;54.70
27016;DHT22;14557;0.000;0.000;2023-06-04T01:23:33;23.30;54.60
27016;DHT22;14557;0.000;0.000;2023-06-04T01:26:00;23.40;54.50
27016;DHT22;14557;0.000;0.000;2023-06-04T01:28:28;23.30;54.50
27016;DHT22;14557;0.000;0.000;2023-06-04T01:30:54;23.30;54.50
27016;DHT22;14557;0.000;0.000;2023-06-04T01:33:22;23.30;54.60
27016;DHT22;14557;0.000;0.000;2023-06-04T01:35:48;23.30;54.70
27016;DHT22;14557;0.000;0.000;2023-06-04T01:38:13;23.30;54.70
27016;DHT22;14557;0.000;0.000;2023-06-04T01:40:39;23.30;54.80
27016;DHT22;14557;0.000;0.000;2023-06-04T01:43:06;23.20;54.70
27016;DHT22;14557;0.000;0.000;2023-06-04T01:45:31;23.20;54.70
27016;DHT22;14557;0.000;0.000;2023-06-04T01:47:57;23.20;54.70
27016;DHT22;14557;0.000;0.000;2023-06-04T01:50:23;23.20;54.60
27016;DHT22;14557;0.000;0.000;2023-06-04T01:52:49;23.20;54.60
27016;DHT22;14557;0.000;0.000;2023-06-04T01:55:15;23.20;54.40
27016;DHT22;14557;0.000;0.000;2023-06-04T01:57:41;23.20;54.30
27016;DHT22;14557;0.000;0.000;2023-06-04T02:00:07;23.20;54.30
27016;DHT22;14557;0.000;0.000;2023-06-04T02:02:34;23.20;54.30
27016;DHT22;14557;0.000;0.000;2023-06-04T02:05:01;23.20;54.30
27016;DHT22;14557;0.000;0.000;2023-06-04T02:07:27;23.20;54.20
27016;DHT22;14557;0.000;0.000;2023-06-04T02:09:52;23.20;54.20
27016;DHT22;14557;0.000;0.000;2023-06-04T02:12:18;23.20;54.20
27016;DHT22;14557;0.000;0.000;2023-06-04T02:14:44;23.20;54.10
27016;DHT22;14557;0.000;0.000;2023-06-04T02:17:12;23.20;54.20
27016;DHT22;14557;0.000;0.000;2023-06-04T02:19:42;23.10;54.20
27016;DHT22;14557;0.000;0.000;2023-06-04T02:22:15;23.10;54.30
27016;DHT22;14557;0.000;0.000;2023-06-04T02:24:41;23.10;54.40
27016;DHT22;14557;0.000;0.000;2023-06-04T02:27:08;23.10;54.40
27016;DHT22;14557;0.000;0.000;2023-06-04T02:29:33;23.10;54.20
27016;DHT22;14557;0.000;0.000;2023-06-04T02:31:59;23.10;54.30
27016;DHT22;14557;0.000;0.000;2023-06-04T02:34:25;23.10;54.40
27016;DHT22;14557;0.000;0.000;2023-06-04T02:36:50;23.00;54.20
27016;DHT22;14557;0.000;0.000;2023-06-04T02:39:16;23.00;54.20
27016;DHT22;14557;0.000;0.000;2023-06-04T02:41:42;23.00;54.20
27016;DHT22;14557;0.000;0.000;2023-06-04T02:44:07;23.00;54.10
27016;DHT22;14557;0.000;0.000;2023-06-04T02:46:33;23.00;54.20
27016;DHT22;14557;0.000;0.000;2023-06-04T02:48:59;23.00;54.10
27016;DHT22;14557;0.000;0.000;2023-06-04T02:51:24;23.00;54.20
27016;DHT22;14557;0.000;0.000;2023-06-04T02:53:50;23.00;54.20
27016;DHT22;14557;0.000;0.000;2023-06-04T02:56:16;23.00;54.20
27016;DHT22;14557;0.000;0.000;2023-06-04T02:58:54;23.00;54.00
27016;DHT22;14557;0.000;0.000;2023-06-04T03:01:24;23.00;54.20
27016;DHT22;14557;0.000;0.000;2023-06-04T03:03:50;22.90;54.20
27016;DHT22;14557;0.000;0.000;2023-06-04T03:06:16;22.90;54.20
27016;DHT22;14557;0.000;0.000;2023-06-04T03:08:42;22.90;54.30
27016;DHT22;14557;0.000;0.000;2023-06-04T03:11:08;22.90;54.40
27016;DHT22;14557;0.000;0.000;2023-06-04T03:13:34;22.90;54.40
27016;DHT22;14557;0.000;0.000;2023-06-04T03:16:00;22.90;54.50
27016;DHT22;14557;0.000;0.000;2023-06-04T03:18:26;22.90;54.40
27016;DHT22;14557;0.000;0.000;2023-06-04T03:20:52;22.90;54.30
27016;DHT22;14557;0.000;0.000;2023-06-04T03:23:19;22.90;54.30
27016;DHT22;14557;0.000;0.000;2023-06-04T03:25:44;22.90;54.30
27016;DHT22;14557;0.000;0.000;2023-06-04T03:28:10;22.90;54.30
27016;DHT22;14557;0.000;0.000;2023-06-04T03:30:35;22.90;54.90
27016;DHT22;14557;0.000;0.000;2023-06-04T03:33:01;22.90;54.20
27016;DHT22;14557;0.000;0.000;2023-06-04T03:35:28;22.90;54.30
27016;DHT22;14557;0.000;0.000;2023-06-04T03:37:53;22.90;54.30
27016;DHT22;14557;0.000;0.000;2023-06-04T03:40:19;22.90;54.30
27016;DHT22;14557;0.000;0.000;2023-06-04T03:42:44;22.90;54.30
27016;DHT22;14557;0.000;0.000;2023-06-04T03:45:10;22.80;54.20
27016;DHT22;14557;0.000;0.000;2023-06-04T03:47:36;22.80;54.10
27016;DHT22;14557;0.000;0.000;2023-06-04T03:50:01;22.80;54.80
27016;DHT22;14557;0.000;0.000;2023-06-04T03:52:27;22.80;54.30
27016;DHT22;14557;0.000;0.000;2023-06-04T03:54:53;22.80;54.40
27016;DHT22;14557;0.000;0.000;2023-06-04T03:57:18;22.80;54.50
27016;DHT22;14557;0.000;0.000;2023-06-04T03:59:44;22.80;54.50
27016;DHT22;14557;0.000;0.000;2023-06-04T04:02:09;22.70;54.50
27016;DHT22;14557;0.000;0.000;2023-06-04T04:04:35;22.80;54.40
27016;DHT22;14557;0.000;0.000;2023-06-04T04:07:00;22.70;54.30
27016;DHT22;14557;0.000;0.000;2023-06-04T04:09:26;22.70;54.30
27016;DHT22;14557;0.000;0.000;2023-06-04T04:11:51;22.70;54.30
27016;DHT22;14557;0.000;0.000;2023-06-04T04:14:17;22.70;54.30
27016;DHT22;14557;0.000;0.000;2023-06-04T04:16:43;22.70;54.30
27016;DHT22;14557;0.000;0.000;2023-06-04T04:19:08;22.70;54.30
27016;DHT22;14557;0.000;0.000;2023-06-04T04:21:36;22.70;54.30
27016;DHT22;14557;0.000;0.000;2023-06-04T04:24:03;22.70;54.30
27016;DHT22;14557;0.000;0.000;2023-06-04T04:26:28;22.70;54.20
27016;DHT22;14557;0.000;0.000;2023-06-04T04:28:54;22.70;54.20
27016;DHT22;14557;0.000;0.000;2023-06-04T04:31:26;22.70;54.20
27016;DHT22;14557;0.000;0.000;2023-06-04T04:33:52;22.70;54.30
27016;DHT22;14557;0.000;0.000;2023-06-04T04:36:18;22.70;54.40
27016;DHT22;14557;0.000;0.000;2023-06-04T04:38:44;22.70;54.50
27016;DHT22;14557;0.000;0.000;2023-06-04T04:41:20;22.60;54.50
27016;DHT22;14557;0.000;0.000;2023-06-04T04:43:47;22.60;54.60
27016;DHT22;14557;0.000;0.000;2023-06-04T04:46:13;22.60;54.60
27016;DHT22;14557;0.000;0.000;2023-06-04T04:48:39;22.60;54.50
27016;DHT22;14557;0.000;0.000;2023-06-04T04:51:05;22.60;54.40
27016;DHT22;14557;0.000;0.000;2023-06-04T04:53:31;22.60;54.40
27016;DHT22;14557;0.000;0.000;2023-06-04T04:55:57;22.60;54.40
27016;DHT22;14557;0.000;0.000;2023-06-04T04:58:22;22.60;54.30
27016;DHT22;14557;0.000;0.000;2023-06-04T05:00:48;22.60;54.40
27016;DHT22;14557;0.000;0.000;2023-06-04T05:03:14;22.60;54.30
27016;DHT22;14557;0.000;0.000;2023-06-04T05:05:39;22.60;54.30
27016;DHT22;14557;0.000;0.000;2023-06-04T05:08:05;22.60;55.00
27016;DHT22;14557;0.000;0.000;2023-06-04T05:10:31;22.60;54.40
27016;DHT22;14557;0.000;0.000;2023-06-04T05:12:57;22.60;54.30
27016;DHT22;14557;0.000;0.000;2023-06-04T05:15:23;22.60;54.40
27016;DHT22;14557;0.000;0.000;2023-06-04T05:17:49;22.60;54.40
27016;DHT22;14557;0.000;0.000;2023-06-04T05:20:17;22.60;54.50
27016;DHT22;14557;0.000;0.000;2023-06-04T05:22:43;22.60;54.60
27016;DHT22;14557;0.000;0.000;2023-06-04T05:25:09;22.50;54.70
27016;DHT22;14557;0.000;0.000;2023-06-04T05:27:35;22.50;54.70
27016;DHT22;14557;0.000;0.000;2023-06-04T05:30:01;22.50;54.80
27016;DHT22;14557;0.000;0.000;2023-06-04T05:32:28;22.50;54.80
27016;DHT22;14557;0.000;0.000;2023-06-04T05:34:54;22.50;54.60
27016;DHT22;14557;0.000;0.000;2023-06-04T05:37:22;22.50;54.50
27016;DHT22;14557;0.000;0.000;2023-06-04T05:39:49;22.50;54.50
27016;DHT22;14557;0.000;0.000;2023-06-04T05:42:15;22.50;54.60
27016;DHT22;14557;0.000;0.000;2023-06-04T05:44:40;22.50;54.60
27016;DHT22;14557;0.000;0.000;2023-06-04T05:47:06;22.50;54.60
27016;DHT22;14557;0.000;0.000;2023-06-04T05:49:33;22.50;54.60
27016;DHT22;14557;0.000;0.000;2023-06-04T05:51:59;22.50;54.60
27016;DHT22;14557;0.000;0.000;2023-06-04T05:54:25;22.50;54.60
27016;DHT22;14557;0.000;0.000;2023-06-04T05:56:50;22.50;54.60
27016;DHT22;14557;0.000;0.000;2023-06-04T05:59:16;22.50;54.60
27016;DHT22;14557;0.000;0.000;2023-06-04T06:01:41;22.50;54.60
27016;DHT22;14557;0.000;0.000;2023-06-04T06:04:08;22.50;54.70
27016;DHT22;14557;0.000;0.000;2023-06-04T06:06:34;22.50;54.90
27016;DHT22;14557;0.000;0.000;2023-06-04T06:09:00;22.40;54.80
27016;DHT22;14557;0.000;0.000;2023-06-04T06:11:26;22.40;54.90
27016;DHT22;14557;0.000;0.000;2023-06-04T06:13:52;22.40;54.90
27016;DHT22;14557;0.000;0.000;2023-06-04T06:16:18;22.40;54.90
27016;DHT22;14557;0.000;0.000;2023-06-04T06:18:43;22.40;54.90
27016;DHT22;14557;0.000;0.000;2023-06-04T06:21:09;22.40;54.90
27016;DHT22;14557;0.000;0.000;2023-06-04T06:23:34;22.40;54.80
27016;DHT22;14557;0.000;0.000;2023-06-04T06:26:01;22.40;54.70
27016;DHT22;14557;0.000;0.000;2023-06-04T06:28:27;22.40;54.70
27016;DHT22;14557;0.000;0.000;2023-06-04T06:30:53;22.40;54.70
27016;DHT22;14557;0.000;0.000;2023-06-04T06:33:19;22.40;54.70
27016;DHT22;14557;0.000;0.000;2023-06-04T06:35:47;22.40;54.70
27016;DHT22;14557;0.000;0.000;2023-06-04T06:38:13;22.40;54.70
27016;DHT22;14557;0.000;0.000;2023-06-04T06:40:39;22.40;55.70
27016;DHT22;14557;0.000;0.000;2023-06-04T06:43:05;22.40;57.40
27016;DHT22;14557;0.000;0.000;2023-06-04T06:45:31;22.50;56.30
27016;DHT22;14557;0.000;0.000;2023-06-04T06:47:56;22.50;61.40
27016;DHT22;14557;0.000;0.000;2023-06-04T06:50:22;22.50;58.30
27016;DHT22;14557;0.000;0.000;2023-06-04T06:52:47;22.50;59.40
27016;DHT22;14557;0.000;0.000;2023-06-04T06:55:13;22.50;58.30
27016;DHT22;14557;0.000;0.000;2023-06-04T06:57:39;22.50;57.80
27016;DHT22;14557;0.000;0.000;2023-06-04T07:00:04;22.50;58.30
27016;DHT22;14557;0.000;0.000;2023-06-04T07:02:31;22.60;60.90
27016;DHT22;14557;0.000;0.000;2023-06-04T07:04:56;22.50;58.70
27016;DHT22;14557;0.000;0.000;2023-06-04T07:07:22;22.50;57.70
27016;DHT22;14557;0.000;0.000;2023-06-04T07:09:48;22.60;57.40
27016;DHT22;14557;0.000;0.000;2023-06-04T07:12:14;22.50;57.10
27016;DHT22;14557;0.000;0.000;2023-06-04T07:14:39;22.50;56.80
27016;DHT22;14557;0.000;0.000;2023-06-04T07:17:05;22.50;56.50
27016;DHT22;14557;0.000;0.000;2023-06-04T07:19:30;22.50;56.30
27016;DHT22;14557;0.000;0.000;2023-06-04T07:21:56;22.50;56.10
27016;DHT22;14557;0.000;0.000;2023-06-04T07:24:21;22.50;56.10
27016;DHT22;14557;0.000;0.000;2023-06-04T07:26:47;22.60;58.70
27016;DHT22;14557;0.000;0.000;2023-06-04T07:29:13;22.80;57.00
27016;DHT22;14557;0.000;0.000;2023-06-04T07:31:39;22.80;56.10
27016;DHT22;14557;0.000;0.000;2023-06-04T07:34:04;22.80;55.80
27016;DHT22;14557;0.000;0.000;2023-06-04T07:36:30;22.70;55.90
27016;DHT22;14557;0.000;0.000;2023-06-04T07:38:56;22.70;55.90
27016;DHT22;14557;0.000;0.000;2023-06-04T07:41:22;22.60;55.60
27016;DHT22;14557;0.000;0.000;2023-06-04T07:43:47;22.60;55.50
27016;DHT22;14557;0.000;0.000;2023-06-04T07:46:13;22.60;55.50
27016;DHT22;14557;0.000;0.000;2023-06-04T07:48:38;22.60;55.40
27016;DHT22;14557;0.000;0.000;2023-06-04T07:51:04;22.60;55.40
27016;DHT22;14557;0.000;0.000;2023-06-04T07:53:30;22.60;55.30
27016;DHT22;14557;0.000;0.000;2023-06-04T07:55:56;22.60;55.20
27016;DHT22;14557;0.000;0.000;2023-06-04T07:58:21;22.60;55.10
27016;DHT22;14557;0.000;0.000;2023-06-04T08:00:47;22.60;55.10
27016;DHT22;14557;0.000;0.000;2023-06-04T08:03:13;22.60;55.20
27016;DHT22;14557;0.000;0.000;2023-06-04T08:05:40;22.60;55.30
27016;DHT22;14557;0.000;0.000;2023-06-04T08:08:06;22.50;55.40
27016;DHT22;14557;0.000;0.000;2023-06-04T08:10:32;22.50;55.60
27016;DHT22;14557;0.000;0.000;2023-06-04T08:12:57;22.50;55.50
27016;DHT22;14557;0.000;0.000;2023-06-04T08:15:23;22.50;55.50
27016;DHT22;14557;0.000;0.000;2023-06-04T08:17:48;22.50;55.50
27016;DHT22;14557;0.000;0.000;2023-06-04T08:20:14;22.50;55.60
27016;DHT22;14557;0.000;0.000;2023-06-04T08:22:40;22.50;55.50
27016;DHT22;14557;0.000;0.000;2023-06-04T08:25:06;22.50;55.50
27016;DHT22;14557;0.000;0.000;2023-06-04T08:27:32;22.50;55.60
27016;DHT22;14557;0.000;0.000;2023-06-04T08:29:58;22.50;55.60
27016;DHT22;14557;0.000;0.000;2023-06-04T08:32:23;22.50;55.60
27016;DHT22;14557;0.000;0.000;2023-06-04T08:34:49;22.40;55.60
27016;DHT22;14557;0.000;0.000;2023-06-04T08:37:18;22.40;56.10
27016;DHT22;14557;0.000;0.000;2023-06-04T08:39:43;22.50;55.60
27016;DHT22;14557;0.000;0.000;2023-06-04T08:43:09;22.40;55.40
27016;DHT22;14557;0.000;0.000;2023-06-04T08:45:04;22.40;55.40
27016;DHT22;14557;0.000;0.000;2023-06-04T08:47:32;22.40;55.40
27016;DHT22;14557;0.000;0.000;2023-06-04T08:50:00;22.40;55.50
27016;DHT22;14557;0.000;0.000;2023-06-04T08:52:26;22.40;55.50
27016;DHT22;14557;0.000;0.000;2023-06-04T08:54:53;22.40;55.50
27016;DHT22;14557;0.000;0.000;2023-06-04T08:57:19;22.40;55.60
27016;DHT22;14557;0.000;0.000;2023-06-04T08:59:48;22.40;55.50
27016;DHT22;14557;0.000;0.000;2023-06-04T09:02:14;22.40;55.50
27016;DHT22;14557;0.000;0.000;2023-06-04T09:04:39;22.40;55.50
27016;DHT22;14557;0.000;0.000;2023-06-04T09:07:06;22.40;55.50
27016;DHT22;14557;0.000;0.000;2023-06-04T09:09:31;22.40;55.40
27016;DHT22;14557;0.000;0.000;2023-06-04T09:11:59;22.40;55.50
27016;DHT22;14557;0.000;0.000;2023-06-04T09:14:26;22.40;55.50
27016;DHT22;14557;0.000;0.000;2023-06-04T09:16:53;22.40;55.40
27016;DHT22;14557;0.000;0.000;2023-06-04T09:19:20;22.40;55.40
27016;DHT22;14557;0.000;0.000;2023-06-04T09:21:47;22.40;55.30
27016;DHT22;14557;0.000;0.000;2023-06-04T09:24:12;22.40;55.30
27016;DHT22;14557;0.000;0.000;2023-06-04T09:26:38;22.40;55.40
27016;DHT22;14557;0.000;0.000;2023-06-04T09:29:04;22.40;55.30
27016;DHT22;14557;0.000;0.000;2023-06-04T09:31:31;22.40;55.40
27016;DHT22;14557;0.000;0.000;2023-06-04T09:34:02;22.40;55.40
27016;DHT22;14557;0.000;0.000;2023-06-04T09:36:31;22.40;55.50
27016;DHT22;14557;0.000;0.000;2023-06-04T09:38:56;22.40;55.50
27016;DHT22;14557;0.000;0.000;2023-06-04T09:41:22;22.40;55.50
27016;DHT22;14557;0.000;0.000;2023-06-04T09:43:48;22.40;55.50
27016;DHT22;14557;0.000;0.000;2023-06-04T09:46:16;22.40;55.50
27016;DHT22;14557;0.000;0.000;2023-06-04T09:48:43;22.40;55.50
27016;DHT22;14557;0.000;0.000;2023-06-04T09:51:12;22.40;55.50
27016;DHT22;14557;0.000;0.000;2023-06-04T09:53:38;22.40;55.80
27016;DHT22;14557;0.000;0.000;2023-06-04T09:56:04;22.40;55.50
27016;DHT22;14557;0.000;0.000;2023-06-04T09:58:32;22.40;55.50
27016;DHT22;14557;0.000;0.000;2023-06-04T10:00:58;22.40;55.40
27016;DHT22;14557;0.000;0.000;2023-06-04T10:03:24;22.40;56.00
27016;DHT22;14557;0.000;0.000;2023-06-04T10:05:53;22.40;55.40
27016;DHT22;14557;0.000;0.000;2023-06-04T10:08:20;22.40;55.30
27016;DHT22;14557;0.000;0.000;2023-06-04T10:10:47;22.40;55.30
27016;DHT22;14557;0.000;0.000;2023-06-04T10:13:17;22.40;55.20
27016;DHT22;14557;0.000;0.000;2023-06-04T10:15:43;22.40;55.00
27016;DHT22;14557;0.000;0.000;2023-06-04T10:18:08;22.40;55.10
27016;DHT22;14557;0.000;0.000;2023-06-04T10:20:35;22.40;54.90
27016;DHT22;14557;0.000;0.000;2023-06-04T10:23:01;22.50;54.90
27016;DHT22;14557;0.000;0.000;2023-06-04T10:25:27;22.50;54.90
27016;DHT22;14557;0.000;0.000;2023-06-04T10:27:53;22.60;54.80
27016;DHT22;14557;0.000;0.000;2023-06-04T10:30:18;22.60;54.80
27016;DHT22;14557;0.000;0.000;2023-06-04T10:32:45;22.60;54.80
27016;DHT22;14557;0.000;0.000;2023-06-04T10:35:11;22.60;54.60
27016;DHT22;14557;0.000;0.000;2023-06-04T10:37:37;22.70;54.70
27016;DHT22;14557;0.000;0.000;2023-06-04T10:40:03;22.70;54.60
27016;DHT22;14557;0.000;0.000;2023-06-04T10:42:38;22.70;54.40
27016;DHT22;14557;0.000;0.000;2023-06-04T10:45:05;22.80;54.30
27016;DHT22;14557;0.000;0.000;2023-06-04T10:47:31;22.80;54.30
27016;DHT22;14557;0.000;0.000;2023-06-04T10:50:08;22.90;54.20
27016;DHT22;14557;0.000;0.000;2023-06-04T10:52:37;22.90;54.10
27016;DHT22;14557;0.000;0.000;2023-06-04T10:55:04;23.00;54.20
27016;DHT22;14557;0.000;0.000;2023-06-04T10:57:30;23.00;54.20
27016;DHT22;14557;0.000;0.000;2023-06-04T10:59:57;23.10;54.20
27016;DHT22;14557;0.000;0.000;2023-06-04T11:02:23;23.10;54.20
27016;DHT22;14557;0.000;0.000;2023-06-04T11:04:58;23.20;54.20
27016;DHT22;14557;0.000;0.000;2023-06-04T11:07:26;23.20;54.10
27016;DHT22;14557;0.000;0.000;2023-06-04T11:09:52;23.20;54.00
27016;DHT22;14557;0.000;0.000;2023-06-04T11:12:18;23.30;54.00
27016;DHT22;14557;0.000;0.000;2023-06-04T11:14:53;23.30;54.00
27016;DHT22;14557;0.000;0.000;2023-06-04T11:17:19;23.50;59.20
27016;DHT22;14557;0.000;0.000;2023-06-04T11:19:44;23.80;54.90
27016;DHT22;14557;0.000;0.000;2023-06-04T11:22:10;23.80;54.10
27016;DHT22;14557;0.000;0.000;2023-06-04T11:24:36;23.80;55.60
27016;DHT22;14557;0.000;0.000;2023-06-04T11:27:02;23.70;54.80
27016;DHT22;14557;0.000;0.000;2023-06-04T11:29:28;23.70;54.10
27016;DHT22;14557;0.000;0.000;2023-06-04T11:31:53;23.80;55.00
27016;DHT22;14557;0.000;0.000;2023-06-04T11:34:23;23.80;54.60
27016;DHT22;14557;0.000;0.000;2023-06-04T11:36:48;23.90;55.00
27016;DHT22;14557;0.000;0.000;2023-06-04T11:39:18;24.00;54.90
27016;DHT22;14557;0.000;0.000;2023-06-04T11:41:44;24.00;54.70
27016;DHT22;14557;0.000;0.000;2023-06-04T11:44:10;24.00;55.50
27016;DHT22;14557;0.000;0.000;2023-06-04T11:46:39;24.00;53.10
27016;DHT22;14557;0.000;0.000;2023-06-04T11:49:05;23.80;51.50
27016;DHT22;14557;0.000;0.000;2023-06-04T11:51:31;23.60;51.40
27016;DHT22;14557;0.000;0.000;2023-06-04T11:53:58;23.30;51.50
27016;DHT22;14557;0.000;0.000;2023-06-04T11:56:24;23.20;52.30
27016;DHT22;14557;0.000;0.000;2023-06-04T11:58:51;23.00;52.10
27016;DHT22;14557;0.000;0.000;2023-06-04T12:01:16;22.80;52.20
27016;DHT22;14557;0.000;0.000;2023-06-04T12:03:42;22.50;52.40
27016;DHT22;14557;0.000;0.000;2023-06-04T12:06:12;22.40;52.70
27016;DHT22;14557;0.000;0.000;2023-06-04T12:09:19;22.50;53.30
27016;DHT22;14557;0.000;0.000;2023-06-04T12:11:30;22.60;53.40
27016;DHT22;14557;0.000;0.000;2023-06-04T12:13:57;22.70;53.40
27016;DHT22;14557;0.000;0.000;2023-06-04T12:16:23;22.80;53.30
27016;DHT22;14557;0.000;0.000;2023-06-04T12:18:49;22.90;53.30
27016;DHT22;14557;0.000;0.000;2023-06-04T12:21:21;23.00;53.40
27016;DHT22;14557;0.000;0.000;2023-06-04T12:24:05;23.10;53.40
27016;DHT22;14557;0.000;0.000;2023-06-04T12:26:31;23.10;53.50
27016;DHT22;14557;0.000;0.000;2023-06-04T12:28:58;23.20;53.50
27016;DHT22;14557;0.000;0.000;2023-06-04T12:31:24;23.20;53.50
27016;DHT22;14557;0.000;0.000;2023-06-04T12:33:50;23.30;53.50
27016;DHT22;14557;0.000;0.000;2023-06-04T12:36:15;23.30;53.60
27016;DHT22;14557;0.000;0.000;2023-06-04T12:38:41;23.30;53.70
27016;DHT22;14557;0.000;0.000;2023-06-04T12:41:06;23.30;56.50
27016;DHT22;14557;0.000;0.000;2023-06-04T12:43:32;23.40;55.00
27016;DHT22;14557;0.000;0.000;2023-06-04T12:45:59;23.40;54.90
27016;DHT22;14557;0.000;0.000;2023-06-04T12:48:25;23.50;54.60
27016;DHT22;14557;0.000;0.000;2023-06-04T12:50:50;23.50;54.20
27016;DHT22;14557;0.000;0.000;2023-06-04T12:53:16;23.50;54.40
27016;DHT22;14557;0.000;0.000;2023-06-04T12:55:41;23.60;54.50
27016;DHT22;14557;0.000;0.000;2023-06-04T12:58:07;23.50;54.40
27016;DHT22;14557;0.000;0.000;2023-06-04T13:00:33;23.60;54.40
27016;DHT22;14557;0.000;0.000;2023-06-04T13:02:58;23.60;54.40
27016;DHT22;14557;0.000;0.000;2023-06-04T13:05:25;23.60;54.30
27016;DHT22;14557;0.000;0.000;2023-06-04T13:07:50;23.60;54.30
27016;DHT22;14557;0.000;0.000;2023-06-04T13:10:16;23.60;54.30
27016;DHT22;14557;0.000;0.000;2023-06-04T13:12:42;23.70;54.00
27016;DHT22;14557;0.000;0.000;2023-06-04T13:15:07;23.70;54.10
27016;DHT22;14557;0.000;0.000;2023-06-04T13:17:33;23.70;53.80
27016;DHT22;14557;0.000;0.000;2023-06-04T13:19:59;23.70;53.90
27016;DHT22;14557;0.000;0.000;2023-06-04T13:22:25;23.70;54.50
27016;DHT22;14557;0.000;0.000;2023-06-04T13:24:50;23.70;53.90
27016;DHT22;14557;0.000;0.000;2023-06-04T13:27:16;23.80;53.90
27016;DHT22;14557;0.000;0.000;2023-06-04T13:29:42;23.80;54.00
27016;DHT22;14557;0.000;0.000;2023-06-04T13:32:07;23.80;54.10
27016;DHT22;14557;0.000;0.000;2023-06-04T13:34:33;23.80;54.20
27016;DHT22;14557;0.000;0.000;2023-06-04T13:36:58;23.80;54.20
27016;DHT22;14557;0.000;0.000;2023-06-04T13:39:24;23.90;54.40
27016;DHT22;14557;0.000;0.000;2023-06-04T13:41:49;23.80;54.30
27016;DHT22;14557;0.000;0.000;2023-06-04T13:44:15;23.80;54.20
27016;DHT22;14557;0.000;0.000;2023-06-04T13:46:41;23.80;54.30
27016;DHT22;14557;0.000;0.000;2023-06-04T13:49:07;23.80;54.10
27016;DHT22;14557;0.000;0.000;2023-06-04T13:51:32;23.80;54.20
27016;DHT22;14557;0.000;0.000;2023-06-04T13:53:58;23.80;54.20
27016;DHT22;14557;0.000;0.000;2023-06-04T13:56:24;23.90;54.10
27016;DHT22;14557;0.000;0.000;2023-06-04T13:58:50;23.90;54.00
27016;DHT22;14557;0.000;0.000;2023-06-04T14:01:16;23.90;54.00
27016;DHT22;14557;0.000;0.000;2023-06-04T14:03:42;23.90;54.00
27016;DHT22;14557;0.000;0.000;2023-06-04T14:06:07;23.90;54.00
27016;DHT22;14557;0.000;0.000;2023-06-04T14:08:33;23.90;54.00
27016;DHT22;14557;0.000;0.000;2023-06-04T14:10:58;24.00;54.00
27016;DHT22;14557;0.000;0.000;2023-06-04T14:13:24;24.00;54.00
27016;DHT22;14557;0.000;0.000;2023-06-04T14:15:50;24.00;53.90
27016;DHT22;14557;0.000;0.000;2023-06-04T14:18:16;24.00;53.90
27016;DHT22;14557;0.000;0.000;2023-06-04T14:20:43;24.00;54.70
27016;DHT22;14557;0.000;0.000;2023-06-04T14:23:08;24.00;54.10
27016;DHT22;14557;0.000;0.000;2023-06-04T14:25:34;24.00;54.60
27016;DHT22;14557;0.000;0.000;2023-06-04T14:28:01;24.00;54.20
27016;DHT22;14557;0.000;0.000;2023-06-04T14:30:27;23.90;54.10
27016;DHT22;14557;0.000;0.000;2023-06-04T14:32:53;24.00;54.20
27016;DHT22;14557;0.000;0.000;2023-06-04T14:35:18;24.10;54.30
27016;DHT22;14557;0.000;0.000;2023-06-04T14:37:44;24.10;54.30
27016;DHT22;14557;0.000;0.000;2023-06-04T14:40:09;24.10;54.30
27016;DHT22;14557;0.000;0.000;2023-06-04T14:42:35;24.10;54.00
27016;DHT22;14557;0.000;0.000;2023-06-04T14:45:01;24.10;54.50
27016;DHT22;14557;0.000;0.000;2023-06-04T14:47:30;24.10;54.00
27016;DHT22;14557;0.000;0.000;2023-06-04T14:49:58;24.00;54.70
27016;DHT22;14557;0.000;0.000;2023-06-04T14:52:24;24.00;54.80
27016;DHT22;14557;0.000;0.000;2023-06-04T14:54:50;24.00;54.80
27016;DHT22;14557;0.000;0.000;2023-06-04T14:57:15;24.00;54.90
27016;DHT22;14557;0.000;0.000;2023-06-04T14:59:44;24.10;54.90
27016;DHT22;14557;0.000;0.000;2023-06-04T15:02:09;24.10;54.90
27016;DHT22;14557;0.000;0.000;2023-06-04T15:04:35;24.10;55.00
27016;DHT22;14557;0.000;0.000;2023-06-04T15:07:02;24.10;55.00
27016;DHT22;14557;0.000;0.000;2023-06-04T15:09:28;24.10;55.00
27016;DHT22;14557;0.000;0.000;2023-06-04T15:11:54;24.20;55.90
27016;DHT22;14557;0.000;0.000;2023-06-04T15:14:20;24.20;55.70
27016;DHT22;14557;0.000;0.000;2023-06-04T15:16:45;24.30;55.30
27016;DHT22;14557;0.000;0.000;2023-06-04T15:19:11;24.30;55.00
27016;DHT22;14557;0.000;0.000;2023-06-04T15:21:36;24.30;54.90
27016;DHT22;14557;0.000;0.000;2023-06-04T15:24:02;24.20;54.80
27016;DHT22;14557;0.000;0.000;2023-06-04T15:26:28;24.20;54.80
27016;DHT22;14557;0.000;0.000;2023-06-04T15:28:53;24.20;54.80
27016;DHT22;14557;0.000;0.000;2023-06-04T15:31:21;24.20;54.80
27016;DHT22;14557;0.000;0.000;2023-06-04T15:33:47;24.20;54.90
27016;DHT22;14557;0.000;0.000;2023-06-04T15:36:12;24.30;54.90
27016;DHT22;14557;0.000;0.000;2023-06-04T15:38:38;24.50;54.70